Burton, MI

11:53 PM EST on December 02, 2016 (GMT -0500)
Flint Township Trenton Drive | | Change Station

Elev 755 ft 43.01 °N, 83.80 °W | Updated 1 minute ago

Scattered Clouds
Scattered Clouds
34.3 °F
Feels Like 34 °F
N
2.0
Wind Variable Wind from WSW
Gusts 10.0 mph

Today
High -- | Low -- °F
--% Chance of Precip.
Yesterday
High -- | Low -- °F
Precip. -- in
Pressure 30.23 in
Visibility 10.0 miles
Clouds Scattered Clouds 2800 ft
Windchill 34 °F
Dew Point 29 °F
Humidity 82%
Rainfall in
Snow Depth Not available.
7:47 AM 5:00 PM
Waxing Crescent, 12% visible
SPECI KFNT 030409Z 29007KT 10SM SCT028 00/M02 A3023 RMK AO2 T00001022
Pressure 30.23 in
Visibility 10.0 miles
Clouds Scattered Clouds 2800 ft
Windchill 34 °F
Dew Point 29 °F
Humidity 82%
Rainfall in
Snow Depth Not available.
7:47 AM 5:00 PM
Waxing Crescent, 12% visible
SPECI KFNT 030409Z 29007KT 10SM SCT028 00/M02 A3023 RMK AO2 T00001022

10-Day Weather Forecast

Almanac

Astronomy

Dec. 02, 2016 Rise Set
Actual Time
Civil Twilight
Nautical Twilight
Astronomical Twilight
Moon
Length of Visible Light
Length of Day
Tomorrow will be .
, % of the Moon is Illuminated

Today's Extremes

State Highs State Lows

Community

WunderPhotos

Upload Photos

1,955,411 photos uploaded!

WunderBlog® & News

Nearby

Air Quality

  Air Quality AQ Index Pollutant
Not available.

Snow Depth

Station Depth Elevation

Earthquake Activity

City Distance Mag. Time & Date
Minimum magnitude displayed is 2.5.

Coastal Water Temperatures

Place Temperature

Stations

Nearby Weather Stations

Station Location Temp. Windchill Dew Point Humidity Wind Precip. Elev Updated Type
                   

Watches & Warnings

There are currently no watches in effect.